createdAt,value
2019-02-05T00:00:37.034Z,-0.90
2019-02-05T00:03:11.201Z,-0.80
2019-02-05T00:05:40.124Z,-0.90
2019-02-05T00:08:08.775Z,-0.90
2019-02-05T00:10:37.361Z,-0.90
2019-02-05T00:13:06.259Z,-1.00
2019-02-05T00:15:35.030Z,-0.90
2019-02-05T00:18:03.853Z,-0.90
2019-02-05T00:20:32.419Z,-0.90
2019-02-05T00:23:01.078Z,-1.10
2019-02-05T00:25:29.702Z,-1.00
2019-02-05T00:27:58.476Z,-1.00
2019-02-05T00:30:27.462Z,-0.90
2019-02-05T00:32:56.035Z,-1.00
2019-02-05T00:35:24.590Z,-1.00
2019-02-05T00:37:53.306Z,-1.00
2019-02-05T00:40:22.059Z,-1.00
2019-02-05T00:42:50.646Z,-1.10
2019-02-05T00:45:20.454Z,-1.10
2019-02-05T00:47:49.107Z,-1.20
2019-02-05T00:50:19.318Z,-1.20
2019-02-05T00:52:47.943Z,-1.20
2019-02-05T00:55:18.363Z,-1.20
2019-02-05T00:57:47.282Z,-1.30
2019-02-05T01:00:22.222Z,-1.30
2019-02-05T01:02:51.131Z,-1.30
2019-02-05T01:05:20.299Z,-1.40
2019-02-05T01:07:49.095Z,-1.40
2019-02-05T01:10:18.419Z,-1.40
2019-02-05T01:12:47.236Z,-1.40
2019-02-05T01:15:17.836Z,-1.40
2019-02-05T01:17:46.573Z,-1.40
2019-02-05T01:20:17.380Z,-1.40
2019-02-05T01:22:46.495Z,-1.40
2019-02-05T01:25:16.725Z,-1.30
2019-02-05T01:27:45.782Z,-1.30
2019-02-05T01:30:22.736Z,-1.20
2019-02-05T01:32:51.430Z,-1.20
2019-02-05T01:35:20.430Z,-1.10
2019-02-05T01:37:49.185Z,-1.10
2019-02-05T01:40:26.542Z,-1.10
2019-02-05T01:42:55.521Z,-1.10
2019-02-05T01:45:25.206Z,-1.00
2019-02-05T01:47:54.131Z,-1.00
2019-02-05T01:50:24.947Z,-1.00
2019-02-05T01:52:53.843Z,-1.00
2019-02-05T01:55:23.150Z,-1.00
2019-02-05T01:57:51.825Z,-1.00
2019-02-05T02:00:26.094Z,-1.00
2019-02-05T02:02:54.690Z,-1.00
2019-02-05T02:05:23.635Z,-1.00
2019-02-05T02:07:52.294Z,-1.10
2019-02-05T02:10:22.908Z,-1.10
2019-02-05T02:12:51.638Z,-1.10
2019-02-05T02:15:20.271Z,-1.10
2019-02-05T02:17:48.922Z,-1.00
2019-02-05T02:20:19.131Z,-1.00
2019-02-05T02:22:48.629Z,-1.00
2019-02-05T02:25:17.858Z,-1.10
2019-02-05T02:27:47.864Z,-1.10
2019-02-05T02:30:22.343Z,-1.10
2019-02-05T02:32:51.244Z,-1.10
2019-02-05T02:35:19.868Z,-1.10
2019-02-05T02:37:48.534Z,-1.20
2019-02-05T02:40:17.405Z,-1.30
2019-02-05T02:42:46.036Z,-1.30
2019-02-05T02:45:15.813Z,-1.30
2019-02-05T02:47:44.462Z,-1.30
2019-02-05T02:50:18.293Z,-1.30
2019-02-05T02:52:47.582Z,-1.30
2019-02-05T02:55:16.416Z,-1.40
2019-02-05T02:57:45.270Z,-1.50
2019-02-05T03:00:21.856Z,-1.50
2019-02-05T03:02:51.875Z,-1.50
2019-02-05T03:05:25.372Z,-1.50
2019-02-05T03:07:54.012Z,-1.50
2019-02-05T03:10:28.161Z,-1.50
2019-02-05T03:12:57.130Z,-1.50
2019-02-05T03:15:25.831Z,-1.50
2019-02-05T03:17:54.581Z,-1.60
2019-02-05T03:20:23.591Z,-1.50
2019-02-05T03:22:52.906Z,-1.50
2019-02-05T03:25:25.657Z,-1.50
2019-02-05T03:27:54.749Z,-1.50
2019-02-05T03:30:25.064Z,-1.60
2019-02-05T03:32:55.738Z,-1.50
2019-02-05T03:35:24.873Z,-1.40
2019-02-05T03:37:53.595Z,-1.50
2019-02-05T03:40:30.952Z,-1.50
2019-02-05T03:43:00.107Z,-1.60
2019-02-05T03:45:31.711Z,-1.50
2019-02-05T03:48:04.790Z,-1.50
2019-02-05T03:50:38.987Z,-1.50
2019-02-05T03:53:25.979Z,-1.60
2019-02-05T03:56:21.503Z,-1.60
2019-02-05T03:59:05.320Z,-1.60
2019-02-05T04:01:55.026Z,-1.70
2019-02-05T04:04:29.634Z,-1.60
2019-02-05T04:07:03.875Z,-1.60
2019-02-05T04:09:52.277Z,-1.60
2019-02-05T04:12:24.354Z,-1.50
2019-02-05T04:14:56.411Z,-1.50
2019-02-05T04:17:33.822Z,-1.50
2019-02-05T04:20:23.485Z,-1.60
2019-02-05T04:23:04.167Z,-1.60
2019-02-05T04:25:56.678Z,-1.60
2019-02-05T04:28:28.378Z,-1.60
2019-02-05T04:31:15.466Z,-1.60
2019-02-05T04:34:08.314Z,-1.50
2019-02-05T04:36:40.027Z,-1.50
2019-02-05T04:39:28.268Z,-1.50
2019-02-05T04:42:17.664Z,-1.50
2019-02-05T04:44:52.419Z,-1.50
2019-02-05T04:47:26.721Z,-1.50
2019-02-05T04:49:58.418Z,-1.50
2019-02-05T04:52:48.023Z,-1.50
2019-02-05T04:55:41.115Z,-1.50
2019-02-05T04:58:22.307Z,-1.50
2019-02-05T05:01:29.161Z,-1.40
2019-02-05T05:04:03.718Z,-1.40
2019-02-05T05:06:47.646Z,-1.40
2019-02-05T05:09:42.435Z,-1.40
2019-02-05T05:12:11.073Z,-1.40
2019-02-05T05:14:40.394Z,-1.40
2019-02-05T05:17:08.985Z,-1.40
2019-02-05T05:19:37.570Z,-1.30
2019-02-05T05:22:06.576Z,-1.30
2019-02-05T05:24:35.294Z,-1.30
2019-02-05T05:27:05.427Z,-1.20
2019-02-05T05:29:34.249Z,-1.20
2019-02-05T05:32:03.380Z,-1.20
2019-02-05T05:34:32.004Z,-1.30
2019-02-05T05:36:59.522Z,-1.20
2019-02-05T05:39:28.147Z,-1.20
2019-02-05T05:41:56.714Z,-1.20
2019-02-05T05:44:25.294Z,-1.20
2019-02-05T05:46:53.958Z,-1.20
2019-02-05T05:49:22.811Z,-1.20
2019-02-05T05:51:51.366Z,-1.10
2019-02-05T05:54:20.035Z,-1.20
2019-02-05T05:56:48.582Z,-1.20
2019-02-05T05:59:17.449Z,-1.20
2019-02-05T06:01:46.028Z,-1.20
2019-02-05T06:04:14.743Z,-1.20
2019-02-05T06:06:43.686Z,-1.20
2019-02-05T06:09:12.886Z,-1.20
2019-02-05T06:11:41.450Z,-1.20
2019-02-05T06:14:10.047Z,-1.20
2019-02-05T06:16:38.671Z,-1.20
2019-02-05T06:19:07.274Z,-1.20
2019-02-05T06:21:35.841Z,-1.20
2019-02-05T06:24:05.038Z,-1.20
2019-02-05T06:26:33.714Z,-1.20
2019-02-05T06:29:02.403Z,-1.20
2019-02-05T06:31:30.970Z,-1.20
2019-02-05T06:33:59.747Z,-1.20
2019-02-05T06:36:28.445Z,-1.20
2019-02-05T06:38:57.034Z,-1.20
2019-02-05T06:41:25.690Z,-1.20
2019-02-05T06:43:54.343Z,-1.30
2019-02-05T06:46:22.917Z,-1.40
2019-02-05T06:48:51.742Z,-1.30
2019-02-05T06:51:20.391Z,-1.30
2019-02-05T06:53:48.990Z,-1.30
2019-02-05T06:56:17.947Z,-1.30
2019-02-05T06:58:46.846Z,-1.40
2019-02-05T07:01:15.530Z,-1.40
2019-02-05T07:03:44.237Z,-1.50
2019-02-05T07:06:13.089Z,-1.50
2019-02-05T07:08:42.571Z,-1.60
2019-02-05T07:11:11.348Z,-1.60
2019-02-05T07:13:40.406Z,-1.60
2019-02-05T07:16:09.347Z,-1.60
2019-02-05T07:18:37.966Z,-1.50
2019-02-05T07:21:06.615Z,-1.50
2019-02-05T07:23:35.222Z,-1.40
2019-02-05T07:26:04.038Z,-1.40
2019-02-05T07:28:32.615Z,-1.40
2019-02-05T07:31:01.524Z,-1.30
2019-02-05T07:33:30.128Z,-1.30
2019-02-05T07:35:58.732Z,-1.30
2019-02-05T07:38:27.409Z,-1.20
2019-02-05T07:40:56.182Z,-1.20
2019-02-05T07:43:24.763Z,-1.20
2019-02-05T07:45:53.391Z,-1.10
2019-02-05T07:48:22.233Z,-1.00
2019-02-05T07:50:51.003Z,-1.00
2019-02-05T07:53:19.686Z,-0.90
2019-02-05T07:55:48.343Z,-0.90
2019-02-05T07:58:16.976Z,-0.80
2019-02-05T08:00:45.632Z,-0.70
2019-02-05T08:03:14.232Z,-0.50
2019-02-05T08:05:42.834Z,-0.60
2019-02-05T08:08:12.264Z,-0.50
2019-02-05T08:10:40.848Z,-0.50
2019-02-05T08:13:09.707Z,-0.30
2019-02-05T08:15:38.352Z,-0.30
2019-02-05T08:18:07.387Z,-0.20
2019-02-05T08:20:35.977Z,-0.20
2019-02-05T08:23:04.943Z,-0.30
2019-02-05T08:25:33.539Z,-0.10
2019-02-05T08:28:02.701Z,-0.10
2019-02-05T08:30:36.968Z,-0.10
2019-02-05T08:33:05.930Z,-0.10
2019-02-05T08:35:34.572Z,0.00
2019-02-05T08:38:03.191Z,0.00
2019-02-05T08:40:31.848Z,0.00
2019-02-05T08:43:00.787Z,0.00
2019-02-05T08:45:34.720Z,0.00
2019-02-05T08:48:03.287Z,0.10
2019-02-05T08:50:33.507Z,0.10
2019-02-05T08:53:02.103Z,0.10
2019-02-05T08:55:31.040Z,0.10
2019-02-05T08:58:02.790Z,0.20
2019-02-05T09:00:37.127Z,0.30
2019-02-05T09:03:07.138Z,0.30
2019-02-05T09:05:35.747Z,0.30
2019-02-05T09:08:04.404Z,0.30
2019-02-05T09:10:35.505Z,0.40
2019-02-05T09:13:04.870Z,0.30
2019-02-05T09:15:33.776Z,0.40
2019-02-05T09:18:02.819Z,0.40
2019-02-05T09:20:31.559Z,0.40
2019-02-05T09:23:00.399Z,0.50
2019-02-05T09:25:29.137Z,0.50
2019-02-05T09:27:57.872Z,0.50
2019-02-05T09:30:35.012Z,0.50
2019-02-05T09:33:06.838Z,0.50
2019-02-05T09:35:35.475Z,0.50
2019-02-05T09:38:04.314Z,0.60
2019-02-05T09:40:33.865Z,0.60
2019-02-05T09:43:02.592Z,0.70
2019-02-05T09:45:31.997Z,0.70
2019-02-05T09:48:01.607Z,0.80
2019-02-05T09:50:43.479Z,0.80
2019-02-05T09:53:01.343Z,0.90
2019-02-05T09:55:30.008Z,0.90
2019-02-05T09:57:58.851Z,0.90
2019-02-05T10:00:33.143Z,0.90
2019-02-05T10:03:01.800Z,0.90
2019-02-05T10:05:34.995Z,1.00
2019-02-05T10:08:03.805Z,1.10
2019-02-05T10:10:32.379Z,1.10
2019-02-05T10:13:01.374Z,1.10
2019-02-05T10:15:35.336Z,1.10
2019-02-05T10:18:04.686Z,1.10
2019-02-05T10:20:33.423Z,1.10
2019-02-05T10:23:03.248Z,1.10
2019-02-05T10:25:32.178Z,1.10
2019-02-05T10:28:00.763Z,1.10
2019-02-05T10:30:31.692Z,1.10
2019-02-05T10:33:02.594Z,1.20
2019-02-05T10:35:31.164Z,1.10
2019-02-05T10:38:00.213Z,1.20
2019-02-05T10:40:29.150Z,1.20
2019-02-05T10:42:58.164Z,1.20
2019-02-05T10:45:27.416Z,1.30
2019-02-05T10:47:56.468Z,1.30
2019-02-05T10:50:25.501Z,1.30
2019-02-05T10:52:54.327Z,1.30
2019-02-05T10:55:23.551Z,1.30
2019-02-05T10:57:54.455Z,1.30
2019-02-05T11:00:28.534Z,1.40
2019-02-05T11:02:58.840Z,1.40
2019-02-05T11:05:29.284Z,1.40
2019-02-05T11:07:58.018Z,1.40
2019-02-05T11:10:26.676Z,1.40
2019-02-05T11:12:55.510Z,1.40
2019-02-05T11:15:29.364Z,1.50
2019-02-05T11:18:17.487Z,1.50
2019-02-05T11:20:46.095Z,1.40
2019-02-05T11:23:14.715Z,1.50
2019-02-05T11:25:43.424Z,1.50
2019-02-05T11:28:12.035Z,1.50
2019-02-05T11:30:43.353Z,1.50
2019-02-05T11:33:12.490Z,1.50
2019-02-05T11:35:41.202Z,1.60
2019-02-05T11:38:10.440Z,1.50
2019-02-05T11:40:40.655Z,1.50
2019-02-05T11:43:09.350Z,1.50
2019-02-05T11:45:38.037Z,1.50
2019-02-05T11:48:12.686Z,1.50
2019-02-05T11:50:41.434Z,1.50
2019-02-05T11:53:10.023Z,1.50
2019-02-05T11:55:39.194Z,1.50
2019-02-05T11:58:07.785Z,1.50
2019-02-05T12:00:38.264Z,1.50
2019-02-05T12:03:08.403Z,1.50
2019-02-05T12:05:37.527Z,1.50
2019-02-05T12:08:06.570Z,1.60
2019-02-05T12:10:35.255Z,1.60
2019-02-05T12:13:04.112Z,1.60
2019-02-05T12:15:32.902Z,1.60
2019-02-05T12:18:01.613Z,1.60
2019-02-05T12:20:30.275Z,1.60
2019-02-05T12:22:59.380Z,1.60
2019-02-05T12:25:28.284Z,1.60
2019-02-05T12:27:57.032Z,1.70
2019-02-05T12:30:44.416Z,1.70
2019-02-05T12:33:07.884Z,1.80
2019-02-05T12:35:37.246Z,1.80
2019-02-05T12:38:06.764Z,1.80
2019-02-05T12:40:36.092Z,1.80
2019-02-05T12:43:05.559Z,1.90
2019-02-05T12:45:35.954Z,1.80
2019-02-05T12:48:05.210Z,1.80
2019-02-05T12:50:42.152Z,1.90
2019-02-05T12:53:10.747Z,1.80
2019-02-05T12:55:39.435Z,1.90
2019-02-05T12:58:08.169Z,1.90
2019-02-05T13:00:58.278Z,1.90
2019-02-05T13:03:20.673Z,1.90
2019-02-05T13:05:49.394Z,1.90
2019-02-05T13:08:18.139Z,1.90
2019-02-05T13:10:49.562Z,1.80
2019-02-05T13:13:18.518Z,1.90
2019-02-05T13:15:47.189Z,1.80
2019-02-05T13:18:15.896Z,1.80
2019-02-05T13:20:44.876Z,1.80
2019-02-05T13:23:13.615Z,1.80
2019-02-05T13:25:42.619Z,1.80
2019-02-05T13:28:12.554Z,1.80
2019-02-05T13:30:41.322Z,1.80
2019-02-05T13:33:11.243Z,1.80
2019-02-05T13:35:40.584Z,1.80
2019-02-05T13:38:09.329Z,1.80
2019-02-05T13:40:38.072Z,1.80
2019-02-05T13:43:07.213Z,1.80
2019-02-05T13:45:38.600Z,1.80
2019-02-05T13:48:08.141Z,1.80
2019-02-05T13:50:37.175Z,1.80
2019-02-05T13:53:06.714Z,1.80
2019-02-05T13:55:40.523Z,1.80
2019-02-05T13:58:09.967Z,1.80
2019-02-05T14:00:46.946Z,1.70
2019-02-05T14:03:15.812Z,1.60
2019-02-05T14:05:45.316Z,1.70
2019-02-05T14:08:14.079Z,1.70
2019-02-05T14:10:45.010Z,1.60
2019-02-05T14:13:13.736Z,1.70
2019-02-05T14:15:45.179Z,1.60
2019-02-05T14:18:13.887Z,1.60
2019-02-05T14:20:42.637Z,1.70
2019-02-05T14:23:11.681Z,1.60
2019-02-05T14:25:40.418Z,1.70
2019-02-05T14:28:09.039Z,1.70
2019-02-05T14:30:49.335Z,1.70
2019-02-05T14:33:17.936Z,1.70
2019-02-05T14:35:46.635Z,1.70
2019-02-05T14:38:15.355Z,1.70
2019-02-05T14:40:44.072Z,1.70
2019-02-05T14:43:12.858Z,1.70
2019-02-05T14:45:41.908Z,1.60
2019-02-05T14:48:10.701Z,1.60
2019-02-05T14:50:41.938Z,1.70
2019-02-05T14:53:11.267Z,1.60
2019-02-05T14:55:39.975Z,1.60
2019-02-05T14:58:10.585Z,1.60
2019-02-05T15:00:39.904Z,1.60
2019-02-05T15:03:10.553Z,1.60
2019-02-05T15:05:39.875Z,1.60
2019-02-05T15:08:09.037Z,1.50
2019-02-05T15:10:37.635Z,1.50
2019-02-05T15:13:07.074Z,1.50
2019-02-05T15:15:36.238Z,1.50
2019-02-05T15:18:06.458Z,1.50
2019-02-05T15:20:40.545Z,1.50
2019-02-05T15:23:09.406Z,1.50
2019-02-05T15:25:38.444Z,1.50
2019-02-05T15:28:07.622Z,1.50
2019-02-05T15:30:41.742Z,1.50
2019-02-05T15:33:32.001Z,1.40
2019-02-05T15:36:02.258Z,1.40
2019-02-05T15:38:31.321Z,1.50
2019-02-05T15:41:00.248Z,1.50
2019-02-05T15:43:28.955Z,1.40
2019-02-05T15:45:57.695Z,1.40
2019-02-05T15:48:26.554Z,1.40
2019-02-05T15:50:55.157Z,1.40
2019-02-05T15:53:24.220Z,1.40
2019-02-05T15:55:52.999Z,1.40
2019-02-05T15:58:21.592Z,1.40
2019-02-05T16:00:50.319Z,1.40
2019-02-05T16:03:20.387Z,1.40
2019-02-05T16:05:49.037Z,1.40
2019-02-05T16:08:17.660Z,1.40
2019-02-05T16:10:46.344Z,1.30
2019-02-05T16:13:15.219Z,1.30
2019-02-05T16:15:43.838Z,1.30
2019-02-05T16:18:12.411Z,1.30
2019-02-05T16:20:41.018Z,1.30
2019-02-05T16:23:09.695Z,1.30
2019-02-05T16:25:38.682Z,1.30
2019-02-05T16:28:07.323Z,1.30
2019-02-05T16:30:36.072Z,1.30
2019-02-05T16:33:05.127Z,1.30
2019-02-05T16:35:33.735Z,1.30
2019-02-05T16:38:02.581Z,1.30
2019-02-05T16:40:36.250Z,1.30
2019-02-05T16:43:05.971Z,1.20
2019-02-05T16:45:34.751Z,1.20
2019-02-05T16:48:03.421Z,1.20
2019-02-05T16:50:34.749Z,1.20
2019-02-05T16:53:03.997Z,1.20
2019-02-05T16:55:33.207Z,1.20
2019-02-05T16:58:01.895Z,1.20
2019-02-05T17:00:35.251Z,1.20
2019-02-05T17:03:04.692Z,1.20
2019-02-05T17:05:35.935Z,1.10
2019-02-05T17:08:05.264Z,1.10
2019-02-05T17:10:34.009Z,1.10
2019-02-05T17:13:02.646Z,1.20
2019-02-05T17:15:31.296Z,1.10
2019-02-05T17:18:00.036Z,1.10
2019-02-05T17:20:30.682Z,1.20
2019-02-05T17:23:00.673Z,1.20
2019-02-05T17:25:30.894Z,1.20
2019-02-05T17:28:01.735Z,1.20
2019-02-05T17:30:33.504Z,1.20
2019-02-05T17:33:02.435Z,1.10
2019-02-05T17:35:31.086Z,1.10
2019-02-05T17:38:00.151Z,1.10
2019-02-05T17:40:28.910Z,1.20
2019-02-05T17:42:57.484Z,1.20
2019-02-05T17:45:28.751Z,1.20
2019-02-05T17:47:58.102Z,1.20
2019-02-05T17:50:26.748Z,1.20
2019-02-05T17:52:55.368Z,1.20
2019-02-05T17:55:24.475Z,1.20
2019-02-05T17:57:53.232Z,1.20
2019-02-05T18:00:48.872Z,1.20
2019-02-05T18:03:17.599Z,1.20
2019-02-05T18:05:46.571Z,1.20
2019-02-05T18:08:15.191Z,1.20
2019-02-05T18:10:43.772Z,1.20
2019-02-05T18:13:12.391Z,1.20
2019-02-05T18:15:43.012Z,1.30
2019-02-05T18:18:11.743Z,1.30
2019-02-05T18:20:40.350Z,1.30
2019-02-05T18:23:09.024Z,1.30
2019-02-05T18:25:37.700Z,1.20
2019-02-05T18:28:06.542Z,1.20
2019-02-05T18:30:37.804Z,1.20
2019-02-05T18:33:07.143Z,1.20
2019-02-05T18:35:36.076Z,1.20
2019-02-05T18:38:08.364Z,1.20
2019-02-05T18:40:37.048Z,1.20
2019-02-05T18:43:05.958Z,1.30
2019-02-05T18:45:34.578Z,1.20
2019-02-05T18:48:03.251Z,1.30
2019-02-05T18:50:31.928Z,1.30
2019-02-05T18:53:00.532Z,1.30
2019-02-05T18:55:43.357Z,1.20
2019-02-05T18:58:12.002Z,1.20
2019-02-05T19:00:45.588Z,1.20
2019-02-05T19:03:16.002Z,1.20
2019-02-05T19:05:44.731Z,1.20
2019-02-05T19:08:16.323Z,1.20
2019-02-05T19:10:43.864Z,1.20
2019-02-05T19:13:12.540Z,1.20
2019-02-05T19:15:41.678Z,1.20
2019-02-05T19:18:11.384Z,1.20
2019-02-05T19:20:40.158Z,1.20
2019-02-05T19:23:10.380Z,1.20
2019-02-05T19:25:56.329Z,1.20
2019-02-05T19:28:30.403Z,1.20
2019-02-05T19:31:00.858Z,1.20
2019-02-05T19:33:29.478Z,1.20
2019-02-05T19:35:58.125Z,1.30
2019-02-05T19:38:26.740Z,1.30
2019-02-05T19:40:57.669Z,1.30
2019-02-05T19:43:25.700Z,1.30
2019-02-05T19:45:58.659Z,1.30
2019-02-05T19:48:33.437Z,1.30
2019-02-05T19:51:01.973Z,1.30
2019-02-05T19:53:30.611Z,1.30
2019-02-05T19:55:59.492Z,1.30
2019-02-05T19:58:28.076Z,1.30
2019-02-05T20:00:57.066Z,1.30
2019-02-05T20:03:26.009Z,1.30
2019-02-05T20:05:54.704Z,1.30
2019-02-05T20:08:23.373Z,1.30
2019-02-05T20:10:52.087Z,1.30
2019-02-05T20:13:20.654Z,1.30
2019-02-05T20:15:51.165Z,1.30
2019-02-05T20:18:19.560Z,1.30
2019-02-05T20:20:48.332Z,1.30
2019-02-05T20:23:17.047Z,1.30
2019-02-05T20:25:45.636Z,1.30
2019-02-05T20:28:14.612Z,1.30
2019-02-05T20:30:43.192Z,1.30
2019-02-05T20:33:12.120Z,1.30
2019-02-05T20:35:40.768Z,1.30
2019-02-05T20:38:09.512Z,1.30
2019-02-05T20:40:38.118Z,1.30
2019-02-05T20:43:06.696Z,1.30
2019-02-05T20:45:35.323Z,1.30
2019-02-05T20:48:04.682Z,1.30
2019-02-05T20:50:33.341Z,1.30
2019-02-05T20:53:13.059Z,1.40
2019-02-05T20:55:32.170Z,1.40
2019-02-05T20:58:00.912Z,1.40
2019-02-05T21:00:34.059Z,1.40
2019-02-05T21:03:02.649Z,1.40
2019-02-05T21:05:31.330Z,1.40
2019-02-05T21:08:00.302Z,1.40
2019-02-05T21:10:30.341Z,1.40
2019-02-05T21:12:59.032Z,1.40
2019-02-05T21:15:28.213Z,1.40
2019-02-05T21:17:56.886Z,1.30
2019-02-05T21:20:33.549Z,1.30
2019-02-05T21:23:01.752Z,1.30
2019-02-05T21:25:30.487Z,1.30
2019-02-05T21:27:59.278Z,1.30
2019-02-05T21:30:28.855Z,1.30
2019-02-05T21:32:57.483Z,1.30
2019-02-05T21:35:26.295Z,1.30
2019-02-05T21:37:54.904Z,1.30
2019-02-05T21:40:26.131Z,1.30
2019-02-05T21:42:54.788Z,1.30
2019-02-05T21:45:31.095Z,1.30
2019-02-05T21:47:59.691Z,1.30
2019-02-05T21:50:28.519Z,1.30
2019-02-05T21:52:57.664Z,1.30
2019-02-05T21:55:29.501Z,1.30
2019-02-05T21:57:58.240Z,1.30
2019-02-05T22:00:29.435Z,1.20
2019-02-05T22:02:58.445Z,1.20
2019-02-05T22:05:28.515Z,1.20
2019-02-05T22:07:57.192Z,1.20
2019-02-05T22:10:25.830Z,1.20
2019-02-05T22:12:54.899Z,1.20
2019-02-05T22:15:23.956Z,1.20
2019-02-05T22:17:52.751Z,1.20
2019-02-05T22:20:26.242Z,1.20
2019-02-05T22:22:58.042Z,1.20
2019-02-05T22:25:29.607Z,1.20
2019-02-05T22:27:58.415Z,1.20
2019-02-05T22:30:35.061Z,1.20
2019-02-05T22:33:04.806Z,1.10
2019-02-05T22:35:33.396Z,1.10
2019-02-05T22:38:02.075Z,1.20
2019-02-05T22:40:30.831Z,1.20
2019-02-05T22:42:59.423Z,1.10
2019-02-05T22:45:34.507Z,1.10
2019-02-05T22:48:03.207Z,1.10
2019-02-05T22:50:33.851Z,1.10
2019-02-05T22:53:05.322Z,1.10
2019-02-05T22:55:34.004Z,1.10
2019-02-05T22:58:02.653Z,1.20
2019-02-05T23:00:56.354Z,1.20
2019-02-05T23:03:28.248Z,1.10
2019-02-05T23:06:21.268Z,1.10
2019-02-05T23:08:50.100Z,1.10
2019-02-05T23:11:45.036Z,1.10
2019-02-05T23:14:13.642Z,1.10
2019-02-05T23:16:42.372Z,1.10
2019-02-05T23:19:11.484Z,1.10
2019-02-05T23:21:40.611Z,1.10
2019-02-05T23:24:09.231Z,1.10
2019-02-05T23:26:37.893Z,1.10
2019-02-05T23:29:06.931Z,1.10
2019-02-05T23:31:35.551Z,1.10
2019-02-05T23:34:04.222Z,1.10
2019-02-05T23:36:32.844Z,1.10
2019-02-05T23:39:01.486Z,1.10
2019-02-05T23:41:30.060Z,1.00
2019-02-05T23:43:58.715Z,1.00
2019-02-05T23:46:27.363Z,1.10
2019-02-05T23:48:56.305Z,1.10
2019-02-05T23:51:24.993Z,1.10
2019-02-05T23:53:53.693Z,1.10
2019-02-05T23:56:25.677Z,1.10
2019-02-05T23:58:52.520Z,1.10
